createdAt,value
2023-05-02T00:02:21.693Z,14.10
2023-05-02T00:04:48.577Z,14.10
2023-05-02T00:07:15.457Z,14.10
2023-05-02T00:09:42.467Z,14.10
2023-05-02T00:12:09.218Z,14.10
2023-05-02T00:14:36.033Z,14.10
2023-05-02T00:17:03.031Z,14.10
2023-05-02T00:19:29.817Z,14.00
2023-05-02T00:21:56.632Z,14.00
2023-05-02T00:24:23.610Z,14.00
2023-05-02T00:26:50.395Z,14.00
2023-05-02T00:29:17.375Z,14.00
2023-05-02T00:31:44.467Z,14.00
2023-05-02T00:34:11.335Z,14.00
2023-05-02T00:36:38.280Z,14.00
2023-05-02T00:39:05.437Z,14.00
2023-05-02T00:41:32.366Z,14.00
2023-05-02T00:43:59.222Z,14.00
2023-05-02T00:46:26.447Z,14.00
2023-05-02T00:48:53.342Z,14.00
2023-05-02T00:51:20.422Z,14.00
2023-05-02T00:53:47.431Z,14.00
2023-05-02T00:56:14.236Z,14.00
2023-05-02T00:58:41.564Z,14.00
2023-05-02T01:01:41.945Z,14.00
2023-05-02T01:04:27.116Z,14.00
2023-05-02T01:07:08.138Z,14.00
2023-05-02T01:09:58.903Z,13.90
2023-05-02T01:12:38.204Z,13.90
2023-05-02T01:15:08.179Z,13.80
2023-05-02T01:17:35.917Z,13.90
2023-05-02T01:20:08.049Z,13.90
2023-05-02T01:22:38.051Z,13.90
2023-05-02T01:25:09.127Z,13.80
2023-05-02T01:27:50.285Z,13.80
2023-05-02T01:30:20.263Z,13.80
2023-05-02T01:32:48.706Z,13.80
2023-05-02T01:35:20.246Z,13.70
2023-05-02T01:37:48.391Z,13.70
2023-05-02T01:40:19.562Z,13.70
2023-05-02T01:42:48.388Z,13.70
2023-05-02T01:45:16.210Z,13.60
2023-05-02T01:47:45.113Z,13.60
2023-05-02T01:50:16.867Z,13.60
2023-05-02T01:52:44.985Z,13.60
2023-05-02T01:55:15.158Z,13.60
2023-05-02T01:57:46.209Z,13.50
2023-05-02T02:00:17.658Z,13.50
2023-05-02T02:02:46.711Z,13.50
2023-05-02T02:05:17.109Z,13.50
2023-05-02T02:07:44.564Z,13.50
2023-05-02T02:10:11.600Z,13.50
2023-05-02T02:12:56.099Z,13.50
2023-05-02T02:15:28.590Z,13.50
2023-05-02T02:18:09.109Z,13.50
2023-05-02T02:20:36.402Z,13.50
2023-05-02T02:23:07.432Z,13.50
2023-05-02T02:25:35.537Z,13.50
2023-05-02T02:28:02.367Z,13.50
2023-05-02T02:30:29.276Z,13.50
2023-05-02T02:32:56.216Z,13.50
2023-05-02T02:35:23.719Z,13.50
2023-05-02T02:37:54.845Z,13.50
2023-05-02T02:40:34.641Z,13.40
2023-05-02T02:43:22.764Z,13.40
2023-05-02T02:46:07.784Z,13.40
2023-05-02T02:49:03.278Z,13.30
2023-05-02T02:51:58.618Z,13.30
2023-05-02T02:55:06.421Z,13.30
2023-05-02T02:57:39.794Z,13.30
2023-05-02T03:03:49.447Z,13.30
2023-05-02T03:06:17.683Z,13.20
2023-05-02T03:08:45.271Z,13.20
2023-05-02T03:11:12.075Z,13.20
2023-05-02T03:13:38.905Z,13.20
2023-05-02T03:16:38.270Z,13.20
2023-05-02T03:19:06.094Z,13.20
2023-05-02T03:21:33.356Z,13.20
2023-05-02T03:24:04.553Z,13.10
2023-05-02T03:26:31.418Z,13.10
2023-05-02T03:28:58.287Z,13.10
2023-05-02T03:31:26.710Z,13.10
2023-05-02T03:33:54.432Z,13.10
2023-05-02T03:36:21.351Z,13.00
2023-05-02T03:38:48.073Z,13.00
2023-05-02T03:41:14.871Z,13.00
2023-05-02T03:43:41.696Z,13.00
2023-05-02T03:46:11.552Z,13.00
2023-05-02T03:48:38.672Z,13.00
2023-05-02T03:51:08.200Z,13.00
2023-05-02T03:53:35.015Z,13.00
2023-05-02T03:56:01.850Z,13.00
2023-05-02T03:58:28.781Z,13.00
2023-05-02T04:00:55.726Z,13.00
2023-05-02T04:03:23.057Z,13.00
2023-05-02T04:05:51.549Z,13.00
2023-05-02T04:08:19.035Z,13.00
2023-05-02T04:10:45.995Z,13.00
2023-05-02T04:13:13.068Z,13.00
2023-05-02T04:15:39.952Z,13.00
2023-05-02T04:18:06.947Z,13.00
2023-05-02T04:20:33.863Z,13.00
2023-05-02T04:23:00.941Z,13.00
2023-05-02T04:25:28.192Z,13.00
2023-05-02T04:27:55.269Z,13.00
2023-05-02T04:30:22.112Z,13.00
2023-05-02T04:32:49.038Z,13.00
2023-05-02T04:35:15.864Z,13.10
2023-05-02T04:37:42.718Z,13.10
2023-05-02T04:40:10.117Z,13.10
2023-05-02T04:42:36.864Z,13.00
2023-05-02T04:45:03.921Z,13.00
2023-05-02T04:47:31.060Z,13.00
2023-05-02T04:49:58.086Z,13.00
2023-05-02T04:52:25.198Z,13.00
2023-05-02T04:54:52.063Z,13.10
2023-05-02T04:57:19.583Z,13.10
2023-05-02T04:59:47.354Z,13.10
2023-05-02T05:02:14.299Z,13.10
2023-05-02T05:04:41.136Z,13.10
2023-05-02T05:07:08.005Z,13.20
2023-05-02T05:09:34.828Z,13.20
2023-05-02T05:12:03.973Z,13.20
2023-05-02T05:14:31.513Z,13.30
2023-05-02T05:16:58.683Z,13.30
2023-05-02T05:19:26.254Z,13.30
2023-05-02T05:21:53.277Z,13.30
2023-05-02T05:24:20.075Z,13.30
2023-05-02T05:26:47.053Z,13.40
2023-05-02T05:29:14.255Z,13.50
2023-05-02T05:31:41.903Z,13.50
2023-05-02T05:34:08.787Z,13.60
2023-05-02T05:36:36.231Z,13.60
2023-05-02T05:39:03.202Z,13.70
2023-05-02T05:41:30.626Z,13.70
2023-05-02T05:43:57.494Z,13.80
2023-05-02T05:46:24.362Z,13.90
2023-05-02T05:48:51.280Z,13.90
2023-05-02T05:51:18.263Z,14.00
2023-05-02T05:53:45.434Z,14.10
2023-05-02T05:56:13.308Z,14.20
2023-05-02T05:58:40.267Z,14.30
2023-05-02T06:01:08.095Z,14.30
2023-05-02T06:03:35.198Z,14.40
2023-05-02T06:06:02.144Z,14.40
2023-05-02T06:08:28.979Z,14.50
2023-05-02T06:10:55.847Z,14.50
2023-05-02T06:13:22.698Z,14.60
2023-05-02T06:15:49.557Z,14.70
2023-05-02T06:18:16.462Z,14.80
2023-05-02T06:20:43.272Z,14.80
2023-05-02T06:23:10.093Z,14.80
2023-05-02T06:25:39.926Z,14.90
2023-05-02T06:28:07.382Z,14.90
2023-05-02T06:30:34.153Z,15.10
2023-05-02T06:33:01.011Z,15.20
2023-05-02T06:35:27.843Z,15.20
2023-05-02T06:37:54.604Z,15.30
2023-05-02T06:40:21.436Z,15.40
2023-05-02T06:42:48.341Z,15.50
2023-05-02T06:45:15.121Z,15.50
2023-05-02T06:47:41.957Z,15.60
2023-05-02T06:50:09.232Z,15.70
2023-05-02T06:52:36.063Z,15.80
2023-05-02T06:55:02.831Z,15.80
2023-05-02T06:57:29.730Z,15.90
2023-05-02T06:59:56.586Z,16.00
2023-05-02T07:02:23.565Z,16.00
2023-05-02T07:04:50.523Z,16.10
2023-05-02T07:07:19.001Z,16.20
2023-05-02T07:09:46.080Z,16.20
2023-05-02T07:12:12.905Z,16.20
2023-05-02T07:14:39.713Z,16.30
2023-05-02T07:17:06.695Z,16.40
2023-05-02T07:19:33.625Z,16.40
2023-05-02T07:22:00.394Z,16.50
2023-05-02T07:24:27.175Z,16.60
2023-05-02T07:26:54.017Z,16.60
2023-05-02T07:29:20.790Z,16.60
2023-05-02T07:31:47.769Z,16.70
2023-05-02T07:34:14.629Z,16.80
2023-05-02T07:36:41.465Z,17.00
2023-05-02T07:39:08.335Z,17.10
2023-05-02T07:41:35.091Z,17.20
2023-05-02T07:44:02.010Z,17.30
2023-05-02T07:46:28.872Z,17.40
2023-05-02T07:48:55.970Z,17.50
2023-05-02T07:51:26.148Z,17.60
2023-05-02T07:54:01.538Z,17.70
2023-05-02T07:56:28.555Z,17.70
2023-05-02T07:58:55.340Z,17.70
2023-05-02T08:01:22.109Z,17.70
2023-05-02T08:03:50.026Z,17.80
2023-05-02T08:06:17.126Z,17.80
2023-05-02T08:08:43.994Z,17.80
2023-05-02T08:11:10.783Z,17.90
2023-05-02T08:13:37.556Z,17.90
2023-05-02T08:16:04.579Z,18.00
2023-05-02T08:18:31.454Z,18.00
2023-05-02T08:21:00.995Z,18.10
2023-05-02T08:23:27.848Z,18.20
2023-05-02T08:25:54.856Z,18.20
2023-05-02T08:28:21.663Z,18.30
2023-05-02T08:30:49.082Z,18.30
2023-05-02T08:33:15.933Z,18.30
2023-05-02T08:35:43.037Z,18.40
2023-05-02T08:38:09.905Z,18.50
2023-05-02T08:40:42.268Z,18.60
2023-05-02T08:43:11.967Z,18.60
2023-05-02T08:45:43.728Z,18.70
2023-05-02T08:48:13.296Z,18.80
2023-05-02T08:50:42.573Z,18.90
2023-05-02T08:53:10.922Z,18.80
2023-05-02T08:55:42.723Z,18.80
2023-05-02T08:58:10.890Z,18.90
2023-05-02T09:00:42.584Z,19.00
2023-05-02T09:03:20.285Z,19.10
2023-05-02T09:05:56.451Z,19.10
2023-05-02T09:08:24.508Z,19.10
2023-05-02T09:10:51.787Z,19.20
2023-05-02T09:13:35.684Z,19.20
2023-05-02T09:16:16.951Z,19.20
2023-05-02T09:18:46.883Z,19.20
2023-05-02T09:21:21.949Z,19.20
2023-05-02T09:23:50.572Z,19.30
2023-05-02T09:26:31.524Z,19.30
2023-05-02T09:29:01.049Z,19.40
2023-05-02T09:34:12.346Z,19.60
2023-05-02T09:36:40.981Z,19.60
2023-05-02T09:39:13.856Z,19.70
2023-05-02T09:41:45.547Z,19.80
2023-05-02T09:44:13.939Z,19.90
2023-05-02T09:46:42.421Z,20.10
2023-05-02T09:49:12.352Z,20.10
2023-05-02T09:51:39.139Z,20.20
2023-05-02T09:54:06.020Z,20.20
2023-05-02T09:56:53.292Z,20.20
2023-05-02T09:59:20.103Z,20.20
2023-05-02T10:01:58.397Z,20.20
2023-05-02T10:04:26.744Z,20.30
2023-05-02T10:06:55.043Z,20.30
2023-05-02T10:09:22.851Z,20.30
2023-05-02T10:11:55.001Z,20.30
2023-05-02T10:14:23.454Z,20.40
2023-05-02T10:17:01.693Z,20.40
2023-05-02T10:19:33.013Z,20.40
2023-05-02T10:22:00.235Z,20.30
2023-05-02T10:24:27.407Z,20.40
2023-05-02T10:26:55.814Z,20.40
2023-05-02T10:29:22.823Z,20.50
2023-05-02T10:31:50.788Z,20.50
2023-05-02T10:34:19.433Z,20.50
2023-05-02T10:36:46.506Z,20.50
2023-05-02T10:39:13.475Z,20.50
2023-05-02T10:41:41.644Z,20.50
2023-05-02T10:44:08.839Z,20.50
2023-05-02T10:46:37.819Z,20.50
2023-05-02T10:49:12.634Z,20.60
2023-05-02T10:51:41.272Z,20.60
2023-05-02T10:54:17.667Z,20.60
2023-05-02T10:57:06.453Z,20.60
2023-05-02T10:59:38.642Z,20.60
2023-05-02T11:02:24.169Z,20.60
2023-05-02T11:05:05.428Z,20.50
2023-05-02T11:07:36.891Z,20.30
2023-05-02T11:10:27.633Z,20.30
2023-05-02T11:12:56.591Z,20.20
2023-05-02T11:15:26.369Z,20.10
2023-05-02T11:18:11.895Z,19.90
2023-05-02T11:20:45.866Z,19.90
2023-05-02T11:23:15.700Z,19.90
2023-05-02T11:25:47.610Z,19.80
2023-05-02T11:28:40.649Z,19.70
2023-05-02T11:31:10.258Z,19.60
2023-05-02T11:33:37.503Z,19.50
2023-05-02T11:36:04.553Z,19.50
2023-05-02T11:38:38.977Z,19.50
2023-05-02T11:41:06.175Z,19.50
2023-05-02T11:43:33.095Z,19.40
2023-05-02T11:46:01.943Z,19.30
2023-05-02T11:48:30.711Z,19.30
2023-05-02T11:51:02.416Z,19.20
2023-05-02T11:53:30.158Z,19.30
2023-05-02T11:56:04.681Z,19.30
2023-05-02T11:58:33.641Z,19.30
2023-05-02T12:01:21.460Z,19.30
2023-05-02T12:03:49.557Z,19.30
2023-05-02T12:06:21.058Z,19.30
2023-05-02T12:08:49.083Z,19.30
2023-05-02T12:11:17.054Z,19.30
2023-05-02T12:13:48.878Z,19.40
2023-05-02T12:16:17.191Z,19.40
2023-05-02T12:18:44.771Z,19.40
2023-05-02T12:21:11.867Z,19.40
2023-05-02T12:23:40.502Z,19.50
2023-05-02T12:26:37.196Z,19.60
2023-05-02T12:29:07.440Z,19.60
2023-05-02T12:31:35.002Z,19.60
2023-05-02T12:34:02.072Z,19.50
2023-05-02T12:36:29.466Z,19.50
2023-05-02T12:39:02.159Z,19.60
2023-05-02T12:41:37.500Z,19.60
2023-05-02T12:44:05.550Z,19.70
2023-05-02T12:46:32.862Z,19.80
2023-05-02T12:49:12.377Z,19.80
2023-05-02T12:51:40.950Z,19.90
2023-05-02T12:54:07.929Z,19.90
2023-05-02T12:56:46.401Z,20.00
2023-05-02T12:59:30.632Z,20.10
2023-05-02T13:01:57.691Z,20.10
2023-05-02T13:04:34.955Z,20.10
2023-05-02T13:07:01.770Z,20.10
2023-05-02T13:09:28.583Z,20.10
2023-05-02T13:11:55.467Z,20.10
2023-05-02T13:14:22.374Z,20.10
2023-05-02T13:16:50.266Z,20.10
2023-05-02T13:19:17.161Z,20.10
2023-05-02T13:21:43.959Z,20.00
2023-05-02T13:24:10.900Z,19.90
2023-05-02T13:26:37.679Z,19.90
2023-05-02T13:29:04.580Z,19.90
2023-05-02T13:31:31.469Z,19.90
2023-05-02T13:33:58.644Z,19.90
2023-05-02T13:36:25.517Z,19.90
2023-05-02T13:38:52.451Z,19.90
2023-05-02T13:41:19.256Z,20.00
2023-05-02T13:43:46.395Z,19.90
2023-05-02T13:46:13.557Z,19.90
2023-05-02T13:48:40.474Z,19.90
2023-05-02T13:51:10.241Z,19.90
2023-05-02T13:53:37.496Z,19.90
2023-05-02T13:56:04.441Z,20.00
2023-05-02T13:58:31.404Z,20.00
2023-05-02T14:00:58.222Z,20.10
2023-05-02T14:03:25.233Z,20.10
2023-05-02T14:05:52.127Z,20.20
2023-05-02T14:08:19.272Z,20.20
2023-05-02T14:10:46.332Z,20.10
2023-05-02T14:13:13.113Z,20.20
2023-05-02T14:15:40.018Z,20.30
2023-05-02T14:18:06.881Z,20.30
2023-05-02T14:20:33.649Z,20.20
2023-05-02T14:23:00.605Z,20.20
2023-05-02T14:25:27.409Z,20.20
2023-05-02T14:27:54.170Z,20.30
2023-05-02T14:30:21.228Z,20.30
2023-05-02T14:32:48.064Z,20.30
2023-05-02T14:35:14.919Z,20.30
2023-05-02T14:37:45.027Z,20.30
2023-05-02T14:40:12.371Z,20.40
2023-05-02T14:42:39.109Z,20.30
2023-05-02T14:45:07.064Z,20.30
2023-05-02T14:47:34.622Z,20.30
2023-05-02T14:50:03.395Z,20.30
2023-05-02T14:52:30.396Z,20.30
2023-05-02T14:55:00.293Z,20.30
2023-05-02T14:57:27.323Z,20.20
2023-05-02T14:59:54.547Z,20.20
2023-05-02T15:02:21.984Z,20.20
2023-05-02T15:04:48.989Z,20.20
2023-05-02T15:07:16.313Z,20.20
2023-05-02T15:09:43.290Z,20.20
2023-05-02T15:12:10.125Z,20.20
2023-05-02T15:14:36.858Z,20.20
2023-05-02T15:17:03.729Z,20.20
2023-05-02T15:19:30.771Z,20.20
2023-05-02T15:21:57.772Z,20.20
2023-05-02T15:24:24.725Z,20.20
2023-05-02T15:26:52.165Z,20.10
2023-05-02T15:29:19.175Z,20.10
2023-05-02T15:31:46.118Z,20.10
2023-05-02T15:34:13.084Z,20.10
2023-05-02T15:36:40.736Z,20.10
2023-05-02T15:39:07.807Z,20.10
2023-05-02T15:41:34.728Z,20.10
2023-05-02T15:44:01.756Z,20.10
2023-05-02T15:46:28.668Z,20.10
2023-05-02T15:48:55.949Z,20.10
2023-05-02T15:51:22.752Z,20.10
2023-05-02T15:53:52.484Z,20.20
2023-05-02T15:56:21.468Z,20.10
2023-05-02T15:58:48.651Z,20.10
2023-05-02T16:01:15.581Z,20.20
2023-05-02T16:03:42.592Z,20.20
2023-05-02T16:06:10.007Z,20.20
2023-05-02T16:08:36.767Z,20.20
2023-05-02T16:11:03.548Z,20.20
2023-05-02T16:13:30.356Z,20.20
2023-05-02T16:15:57.237Z,20.20
2023-05-02T16:18:28.278Z,20.30
2023-05-02T16:20:57.074Z,20.30
2023-05-02T16:23:26.196Z,20.30
2023-05-02T16:26:00.733Z,20.30
2023-05-02T16:28:27.694Z,20.30
2023-05-02T16:30:54.851Z,20.30
2023-05-02T16:33:22.515Z,20.30
2023-05-02T16:35:49.400Z,20.30
2023-05-02T16:38:16.230Z,20.30
2023-05-02T16:40:42.994Z,20.30
2023-05-02T16:43:09.847Z,20.40
2023-05-02T16:45:36.636Z,20.40
2023-05-02T16:48:04.512Z,20.40
2023-05-02T16:50:31.768Z,20.40
2023-05-02T16:52:58.620Z,20.40
2023-05-02T16:55:25.356Z,20.30
2023-05-02T16:57:52.106Z,20.30
2023-05-02T17:00:19.216Z,20.30
2023-05-02T17:02:46.919Z,20.30
2023-05-02T17:05:14.195Z,20.30
2023-05-02T17:07:40.988Z,20.30
2023-05-02T17:10:08.271Z,20.30
2023-05-02T17:12:35.108Z,20.30
2023-05-02T17:15:04.059Z,20.30
2023-05-02T17:17:31.358Z,20.20
2023-05-02T17:19:58.449Z,20.20
2023-05-02T17:22:26.203Z,20.20
2023-05-02T17:24:54.250Z,20.10
2023-05-02T17:27:21.142Z,20.10
2023-05-02T17:29:47.970Z,20.10
2023-05-02T17:32:15.931Z,20.10
2023-05-02T17:34:45.897Z,20.00
2023-05-02T17:37:12.839Z,20.00
2023-05-02T17:39:39.575Z,20.00
2023-05-02T17:42:07.072Z,20.00
2023-05-02T17:44:36.770Z,19.90
2023-05-02T17:47:04.441Z,19.90
2023-05-02T17:49:32.188Z,19.90
2023-05-02T17:51:58.968Z,19.80
2023-05-02T17:54:25.791Z,19.80
2023-05-02T17:56:52.676Z,19.70
2023-05-02T17:59:19.974Z,19.70
2023-05-02T18:01:47.236Z,19.70
2023-05-02T18:04:14.980Z,19.60
2023-05-02T18:06:41.932Z,19.60
2023-05-02T18:09:08.957Z,19.60
2023-05-02T18:11:35.738Z,19.60
2023-05-02T18:14:05.995Z,19.50
2023-05-02T18:16:34.405Z,19.50
2023-05-02T18:19:01.674Z,19.50
2023-05-02T18:21:29.067Z,19.40
2023-05-02T18:23:56.975Z,19.40
2023-05-02T18:26:23.874Z,19.40
2023-05-02T18:28:53.158Z,19.40
2023-05-02T18:31:20.917Z,19.40
2023-05-02T18:33:47.772Z,19.40
2023-05-02T18:36:19.331Z,19.40
2023-05-02T18:38:46.546Z,19.30
2023-05-02T18:41:13.331Z,19.30
2023-05-02T18:43:40.124Z,19.30
2023-05-02T18:46:08.423Z,19.30
2023-05-02T18:48:36.226Z,19.30
2023-05-02T18:51:03.012Z,19.30
2023-05-02T18:53:29.826Z,19.30
2023-05-02T18:55:57.761Z,19.20
2023-05-02T18:58:24.698Z,19.20
2023-05-02T19:00:51.606Z,19.20
2023-05-02T19:03:19.032Z,19.20
2023-05-02T19:05:45.995Z,19.20
2023-05-02T19:08:12.750Z,19.20
2023-05-02T19:10:39.532Z,19.20
2023-05-02T19:13:06.308Z,19.20
2023-05-02T19:15:34.212Z,19.20
2023-05-02T19:18:01.152Z,19.20
2023-05-02T19:20:29.485Z,19.20
2023-05-02T19:23:14.749Z,19.20
2023-05-02T19:25:43.796Z,19.10
2023-05-02T19:28:12.243Z,19.10
2023-05-02T19:30:43.447Z,19.10
2023-05-02T19:33:10.764Z,19.10
2023-05-02T19:35:37.719Z,19.10
2023-05-02T19:38:04.568Z,19.00
2023-05-02T19:40:31.858Z,19.00
2023-05-02T19:42:58.715Z,19.00
2023-05-02T19:45:25.581Z,19.00
2023-05-02T19:47:52.702Z,18.90
2023-05-02T19:50:22.433Z,18.90
2023-05-02T19:52:50.562Z,18.90
2023-05-02T19:55:18.520Z,18.90
2023-05-02T19:57:45.408Z,18.80
2023-05-02T20:00:14.004Z,18.80
2023-05-02T20:02:41.240Z,18.60
2023-05-02T20:05:08.608Z,18.40
2023-05-02T20:07:35.762Z,18.20
2023-05-02T20:10:02.919Z,18.10
2023-05-02T20:12:30.266Z,18.20
2023-05-02T20:14:57.348Z,18.20
2023-05-02T20:17:24.248Z,18.00
2023-05-02T20:19:51.792Z,17.90
2023-05-02T20:22:19.009Z,17.90
2023-05-02T20:24:45.854Z,17.90
2023-05-02T20:27:12.795Z,17.90
2023-05-02T20:29:39.641Z,17.90
2023-05-02T20:32:06.627Z,17.90
2023-05-02T20:34:36.573Z,17.80
2023-05-02T20:37:06.272Z,17.60
2023-05-02T20:39:33.043Z,17.70
2023-05-02T20:41:59.879Z,17.60
2023-05-02T20:44:28.582Z,17.50
2023-05-02T20:46:55.529Z,17.50
2023-05-02T20:49:22.377Z,17.70
2023-05-02T20:51:50.216Z,17.60
2023-05-02T20:54:17.147Z,17.60
2023-05-02T20:56:44.005Z,17.60
2023-05-02T20:59:11.569Z,17.60
2023-05-02T21:01:38.848Z,17.50
2023-05-02T21:04:05.909Z,17.50
2023-05-02T21:06:33.016Z,17.50
2023-05-02T21:09:01.526Z,17.40
2023-05-02T21:11:28.634Z,17.30
2023-05-02T21:13:55.439Z,17.30
2023-05-02T21:16:22.435Z,17.30
2023-05-02T21:18:49.238Z,17.40
2023-05-02T21:21:16.004Z,17.40
2023-05-02T21:23:42.806Z,17.20
2023-05-02T21:26:09.616Z,17.20
2023-05-02T21:28:38.751Z,17.10
2023-05-02T21:31:07.204Z,17.10
2023-05-02T21:33:34.038Z,17.10
2023-05-02T21:36:01.488Z,17.20
2023-05-02T21:38:28.942Z,17.30
2023-05-02T21:40:55.940Z,17.30
2023-05-02T21:43:22.704Z,17.30
2023-05-02T21:45:50.035Z,17.30
2023-05-02T21:48:17.212Z,17.30
2023-05-02T21:50:45.131Z,17.20
2023-05-02T21:53:12.236Z,17.10
2023-05-02T21:55:41.747Z,17.10
2023-05-02T21:58:11.155Z,17.00
2023-05-02T22:00:39.555Z,16.90
2023-05-02T22:03:08.512Z,16.90
2023-05-02T22:05:39.965Z,17.00
2023-05-02T22:08:11.122Z,17.00
2023-05-02T22:10:39.655Z,17.00
2023-05-02T22:13:09.613Z,16.70
2023-05-02T22:15:36.778Z,16.70
2023-05-02T22:18:06.718Z,16.80
2023-05-02T22:20:33.670Z,16.80
2023-05-02T22:23:00.575Z,16.80
2023-05-02T22:25:27.447Z,16.80
2023-05-02T22:27:54.694Z,16.70
2023-05-02T22:30:21.555Z,16.70
2023-05-02T22:32:48.335Z,16.50
2023-05-02T22:35:15.229Z,16.50
2023-05-02T22:37:42.001Z,16.40
2023-05-02T22:40:10.320Z,16.40
2023-05-02T22:42:37.119Z,16.30
2023-05-02T22:45:04.398Z,16.30
2023-05-02T22:47:31.684Z,16.20
2023-05-02T22:49:59.500Z,16.20
2023-05-02T22:52:27.479Z,16.10
2023-05-02T22:54:54.422Z,16.00
2023-05-02T22:57:21.555Z,16.00
2023-05-02T22:59:48.323Z,16.00
2023-05-02T23:02:15.614Z,16.10
2023-05-02T23:04:42.408Z,16.00
2023-05-02T23:07:09.157Z,16.10
2023-05-02T23:09:36.038Z,16.00
2023-05-02T23:12:03.971Z,16.10
2023-05-02T23:14:30.728Z,16.10
2023-05-02T23:16:58.381Z,16.20
2023-05-02T23:19:25.922Z,16.20
2023-05-02T23:21:52.819Z,16.10
2023-05-02T23:24:19.606Z,16.00
2023-05-02T23:26:46.357Z,15.90
2023-05-02T23:29:13.178Z,15.90
2023-05-02T23:31:40.565Z,15.90
2023-05-02T23:34:07.508Z,15.90
2023-05-02T23:36:35.204Z,15.90
2023-05-02T23:39:02.770Z,15.90
2023-05-02T23:41:30.074Z,15.90
2023-05-02T23:43:56.886Z,16.00
2023-05-02T23:46:24.089Z,15.90
2023-05-02T23:48:50.881Z,15.90
2023-05-02T23:51:18.081Z,15.80
2023-05-02T23:53:44.878Z,15.80
2023-05-02T23:56:11.657Z,15.80
2023-05-02T23:58:38.415Z,15.80
